Terminal Aerodrome Forecast
Issued by NWS

Home | Current Version | Previous Version | Text Only | Print | Product List | Glossary On
Versions: 1 2 3 4 5 6 7 8 9 10 11 12 13 14 15 16 17 18 19 20 21 22
000
FTUS45 KBOU 231732
TAFBJC
TAF
KBJC 231732Z 2318/2418 28008G15KT P6SM SCT120 BKN250
     FM232000 32008KT P6SM FEW120 SCT220
     FM240200 21010KT P6SM FEW120 BKN200
     FM240900 VRB05KT P6SM FEW100 BKN200=

USA.gov is the U.S. government's official web portal to all federal, state and local government web resources and services.